ADDS METAR Data INFO
IDs: Format: Raw Decoded Include TAF

Data at: 0459 UTC 23 May 2017

KMWL 230453Z AUTO 15004KT 10SM CLR 18/17 A2991 RMK AO2 SLP119 T01830167
KMWL 230353Z AUTO 00000KT 10SM CLR 20/17 A2992 RMK AO2 RAE0255 SLP121 P0000 T02000167
KMWL 230253Z AUTO 17005KT 10SM -RA FEW055 FEW100 21/17 A2990 RMK AO2 RAB44 SLP116 P0000 60000 T02110167 55000
KMWL 230153Z AUTO 11004KT 10SM CLR 21/16 A2990 RMK AO2 SLP114 T02110161
KMWL 230053Z AUTO 15004KT 10SM OVC070 23/16 A2989 RMK AO2 SLP113 T02280156
KMWL 222353Z AUTO 15006KT 10SM FEW037 OVC060 24/16 A2990 RMK AO2 SLP116 T02390156 10250 20228 56015
KMWL 222253Z AUTO VRB04KT 10SM FEW035 OVC055 25/16 A2991 RMK AO2 SLP118 T02500156
KMWL 222153Z AUTO 14006KT 10SM OVC050 24/15 A2993 RMK AO2 SLP124 T02440150
KMWL 222053Z AUTO VRB04KT 10SM FEW036 OVC045 24/16 A2995 RMK AO2 SLP132 T02390156 58022
KMWL 221953Z AUTO VRB05KT 10SM BKN035 23/15 A2998 RMK AO2 SLP142 T02330150
KMWL 221915Z AUTO 11007KT 10SM BKN030 BKN035 23/16 A2999 RMK AO2 T02330156
KMWL 221853Z AUTO 12007KT 10SM BKN026 24/16 A3000 RMK AO2 SLP147 T02440156
KMWL 221753Z AUTO 12007KT 10SM OVC022 23/16 A3002 RMK AO2 SLP155 T02280156 10228 20156 58020
KMWL 221653Z AUTO 08004KT 10SM OVC020 21/15 A3006 RMK AO2 SLP169 T02060150
KMWL 221553Z AUTO 09004KT 10SM OVC020 20/14 A3008 RMK AO2 SLP177 T02000144
KMWL 221525Z AUTO 10005KT 10SM SCT020 BKN026 20/14 A3009 RMK AO2 T02000144
KMWL 221453Z AUTO 09006KT 10SM SCT018 19/14 A3008 RMK AO2 SLP175 T01940144 51001
KMWL 221451Z AUTO 13004KT 10SM SCT018 19/14 A3008 RMK AO2
KMWL 221408Z AUTO 12004KT 10SM BKN021 17/14 A3009 RMK AO2 T01720139
KMWL 221353Z AUTO 12008KT 10SM FEW019 17/14 A3008 RMK AO2 SLP179 T01720144
KMWL 221253Z AUTO 00000KT 10SM CLR 16/14 A3007 RMK AO2 SLP174 T01610144
KMWL 221153Z AUTO 12003KT 10SM SCT120 16/14 A3007 RMK AO2 SLP172 60000 70002 T01560144 10172 20150 58005
KMWL 221053Z AUTO 16003KT 10SM FEW110 15/14 A3007 RMK AO2 SLP173 T01500139
KMWL 221019Z AUTO 00000KT 10SM SCT017 16/14 A3009 RMK AO2 T01560139
KMWL 221005Z AUTO 00000KT 10SM BKN017 BKN110 16/14 A3009 RMK AO2 T01560139
KMWL 220953Z AUTO 00000KT 10SM SCT017 BKN110 16/14 A3009 RMK AO2 SLP180 T01610139
KMWL 220853Z AUTO 14005KT 10SM OVC110 16/14 A3008 RMK AO2 RAE0756 SLP178 P0000 60000 T01560139 58011
KMWL 220753Z AUTO 12003KT 10SM -RA SCT050 BKN075 BKN090 16/14 A3012 RMK AO2 RAE23B44 SLP191 P0000 T01560139
KMWL 220653Z AUTO 15007KT 10SM -RA OVC036 17/14 A3013 RMK AO2 SLP192 P0000 T01670144
KMWL 220553Z AUTO 12006KT 10SM -RA OVC038 17/14 A3012 RMK AO2 RAB32 SLP189 P0002 60002 T01720144 10233 20172 402610150 53007
KMWL 220453Z AUTO 15006KT 10SM BKN070 18/13 A3011 RMK AO2 RAB0356E13 SLP185 P0000 T01830133
KMWL 220353Z AUTO 14005KT 10SM BKN100 BKN110 19/13 A3010 RMK AO2 SLP184 T01890128
KMWL 220253Z AUTO 18005KT 10SM BKN070 21/13 A3010 RMK AO2 SLP182 T02060133 53008
KMWL 220153Z AUTO 12004KT 10SM OVC065 21/12 A3009 RMK AO2 SLP179 T02060122
KMWL 220053Z AUTO 07004KT 10SM FEW100 22/11 A3007 RMK AO2 SLP174 T02220106
KMWL 212353Z AUTO 06005KT 10SM OVC120 23/10 A3007 RMK AO2 SLP174 T02330100 10261 20233 56009
KMWL 212253Z AUTO 07007KT 10SM CLR 24/09 A3008 RMK AO2 SLP178 T02440089
KMWL 212153Z AUTO 10010KT 10SM SCT095 25/08 A3009 RMK AO2 SLP178 T02500083
KMWL 212053Z AUTO 11009KT 10SM BKN090 26/09 A3010 RMK AO2 SLP182 T02560089 56018
KMWL 211953Z AUTO 11012G16KT 10SM SCT100 25/09 A3010 RMK AO2 SLP182 T02500089
KMWL 211853Z AUTO 08010G16KT 10SM CLR 25/07 A3012 RMK AO2 SLP187 T02500072
KMWL 211753Z AUTO 08008KT 10SM FEW110 24/09 A3016 RMK AO2 SLP201 60000 T02390089 10239 20156 58001


Page loaded:  04:59 UTC  |   09:59 PM Pacific  |   10:59 PM Mountain  |   11:59 PM Central  |   12:59 AM Eastern

 

ADVISORIES

FORECASTS

FORECASTS

OBSERVATIONS

USER TOOLS

ABOUT US